Time;durP1;ratioP1;P1;durP2;ratioP2;P2;SDS_P1;SDS_P2;PMS_P1;PMS_P2;Temp;Humidity;BMP_temperature;BMP_pressure;BME280_temperature;BME280_humidity;BME280_pressure;Samples;Min_cycle;Max_cycle;Signal;HPM_P1;HPM_P2
2023/03/24 00:01:23;;;;;;;21.90;14.97;;;10.90;93.00;;;;;;5047985;28;20033;-52
2023/03/24 00:03:54;;;;;;;23.45;13.77;;;10.80;93.00;;;;;;5033052;28;20025;-52
2023/03/24 00:06:22;;;;;;;20.33;14.05;;;10.80;93.00;;;;;;5032846;28;20025;-52
2023/03/24 00:08:49;;;;;;;21.17;14.05;;;10.80;93.10;;;;;;5033836;28;20025;-48
2023/03/24 00:11:18;;;;;;;21.70;13.70;;;10.80;93.10;;;;;;5048592;28;20367;-48
2023/03/24 00:13:46;;;;;;;22.58;13.38;;;10.80;93.10;;;;;;5032962;28;20336;-49
2023/03/24 00:16:15;;;;;;;21.35;14.07;;;10.80;93.20;;;;;;5032937;28;20029;-48
2023/03/24 00:18:41;;;;;;;20.60;13.38;;;10.80;93.20;;;;;;5032150;28;20041;-50
2023/03/24 00:21:10;;;;;;;24.25;12.63;;;10.80;93.30;;;;;;5031251;28;20521;-50
2023/03/24 00:23:43;;;;;;;16.92;12.15;;;10.80;93.20;;;;;;5031961;28;20149;-53
2023/03/24 00:26:14;;;;;;;18.00;11.50;;;10.80;93.30;;;;;;5031756;28;20033;-48
2023/03/24 00:28:52;;;;;;;18.23;12.35;;;10.80;93.30;;;;;;5048180;28;20030;-49
2023/03/24 00:31:21;;;;;;;18.73;12.65;;;10.70;93.30;;;;;;5032465;28;20018;-49
2023/03/24 00:33:49;;;;;;;17.15;10.90;;;10.70;93.40;;;;;;5051653;28;20037;-50
2023/03/24 00:36:19;;;;;;;14.55;11.63;;;10.70;93.40;;;;;;5052573;28;20080;-50
2023/03/24 00:38:49;;;;;;;15.68;11.15;;;10.80;93.40;;;;;;5034394;28;20041;-47
2023/03/24 00:41:18;;;;;;;;;;;10.80;93.40;;;;;;5033212;28;20531;-48
2023/03/24 00:43:50;;;;;;;16.42;10.82;;;10.70;93.40;;;;;;5032561;28;19916;-48
2023/03/24 00:46:27;;;;;;;17.55;11.73;;;10.70;93.40;;;;;;5041386;28;20025;-53
2023/03/24 00:49:06;;;;;;;16.33;10.65;;;10.80;93.40;;;;;;5035586;28;20101;-52
2023/03/24 00:51:44;;;;;;;15.30;10.23;;;10.80;93.40;;;;;;5032000;28;20044;-51
2023/03/24 00:54:12;;;;;;;16.15;10.52;;;10.80;93.30;;;;;;5032536;28;20286;-50
2023/03/24 00:56:39;;;;;;;13.98;9.95;;;10.80;93.40;;;;;;5032421;28;20363;-50
2023/03/24 00:59:08;;;;;;;15.23;10.23;;;10.80;93.40;;;;;;5031808;28;20450;-51
2023/03/24 01:01:35;;;;;;;15.88;10.48;;;10.80;93.40;;;;;;5030845;28;20344;-54
2023/03/24 01:04:04;;;;;;;15.05;10.15;;;10.90;93.30;;;;;;5050375;28;20398;-52
2023/03/24 01:06:35;;;;;;;13.13;9.63;;;10.80;93.30;;;;;;5030956;28;20033;-51
2023/03/24 01:09:04;;;;;;;14.05;9.60;;;10.80;93.30;;;;;;5047426;28;20043;-50
2023/03/24 01:11:36;;;;;;;15.43;9.77;;;10.80;93.40;;;;;;5045241;28;20099;-55
2023/03/24 01:14:04;;;;;;;21.15;9.93;;;10.80;93.40;;;;;;5050190;28;20033;-53
2023/03/24 01:16:31;;;;;;;13.20;8.90;;;10.90;93.50;;;;;;5050995;28;20025;-55
2023/03/24 01:18:58;;;;;;;13.45;8.15;;;10.80;93.50;;;;;;5049838;28;20033;-52
2023/03/24 01:21:26;;;;;;;15.43;10.13;;;10.80;93.50;;;;;;5050619;28;20037;-51
2023/03/24 01:23:52;;;;;;;13.85;8.77;;;10.80;93.50;;;;;;5052066;28;20029;-53
2023/03/24 01:26:19;;;;;;;14.00;8.70;;;10.80;93.50;;;;;;5036547;28;20036;-51
2023/03/24 01:28:47;;;;;;;13.00;9.65;;;10.80;93.60;;;;;;5032380;28;20347;-49
2023/03/24 01:31:14;;;;;;;12.70;9.15;;;10.80;93.60;;;;;;5031263;28;20025;-50
2023/03/24 01:33:41;;;;;;;15.68;10.10;;;10.70;93.70;;;;;;5032050;28;20458;-53
2023/03/24 01:36:07;;;;;;;19.20;10.15;;;10.70;93.70;;;;;;5032165;28;20054;-56
2023/03/24 01:38:34;;;;;;;11.60;8.88;;;10.70;93.80;;;;;;5032299;28;20079;-55
2023/03/24 01:41:03;;;;;;;14.32;9.02;;;10.70;93.80;;;;;;5035688;28;20033;-54
2023/03/24 01:43:31;;;;;;;16.25;9.73;;;10.70;93.90;;;;;;5044076;28;20037;-51
2023/03/24 01:46:16;;;;;;;13.95;9.70;;;10.80;93.90;;;;;;5052301;28;20078;-51
2023/03/24 01:49:02;;;;;;;14.65;9.63;;;10.80;93.90;;;;;;5052161;28;20450;-54
2023/03/24 01:51:37;;;;;;;14.85;10.43;;;10.70;93.90;;;;;;5053261;28;20037;-53
2023/03/24 01:54:28;;;;;;;20.25;9.82;;;10.80;94.00;;;;;;5038762;28;20021;-55
2023/03/24 01:57:00;;;;;;;12.32;9.32;;;10.70;94.00;;;;;;5035655;28;20040;-52
2023/03/24 01:59:30;;;;;;;13.45;9.07;;;10.80;94.00;;;;;;5050984;28;20032;-52
2023/03/24 02:02:01;;;;;;;13.63;10.13;;;10.80;94.10;;;;;;5069694;28;20044;-57
2023/03/24 02:04:37;;;;;;;13.95;9.63;;;10.70;94.10;;;;;;5055711;28;20029;-55
2023/03/24 02:07:21;;;;;;;12.57;9.82;;;10.80;94.10;;;;;;5033844;28;20038;-57
2023/03/24 02:09:47;;;;;;;14.98;10.43;;;10.80;94.10;;;;;;5050390;28;20079;-55
2023/03/24 02:12:15;;;;;;;14.93;10.63;;;10.70;94.10;;;;;;5038660;28;20434;-54
2023/03/24 02:14:45;;;;;;;14.98;10.88;;;10.70;94.20;;;;;;5054120;28;20462;-56
2023/03/24 02:17:17;;;;;;;15.18;9.43;;;10.70;94.30;;;;;;5037231;28;20463;-52
2023/03/24 02:20:19;;;;;;;12.40;9.65;;;10.70;94.30;;;;;;5034023;28;20088;-55
2023/03/24 02:23:03;;;;;;;14.70;10.07;;;10.70;94.30;;;;;;4981788;28;20042;-53
2023/03/24 02:25:45;;;;;;;13.52;10.48;;;10.70;94.40;;;;;;5035384;28;20026;-57
2023/03/24 02:29:18;;;;;;;12.45;9.73;;;10.70;94.40;;;;;;5039465;28;20100;-58
2023/03/24 02:32:23;;;;;;;13.48;9.07;;;10.80;94.40;;;;;;5012830;28;20026;-54
2023/03/24 02:35:09;;;;;;;11.40;9.15;;;10.80;94.50;;;;;;4994210;28;20038;-53
2023/03/24 02:38:10;;;;;;;12.32;10.18;;;10.80;94.50;;;;;;5034899;28;20026;-54
2023/03/24 02:40:54;;;;;;;13.63;9.80;;;10.80;94.50;;;;;;5038372;28;20684;-54
2023/03/24 02:43:58;;;;;;;12.48;9.45;;;10.80;94.50;;;;;;5049107;28;20026;-55
2023/03/24 02:46:32;;;;;;;17.60;10.00;;;10.80;94.50;;;;;;5040497;28;20044;-55
2023/03/24 02:49:24;;;;;;;14.38;10.48;;;10.80;94.60;;;;;;5036771;28;20064;-57
2023/03/24 02:52:11;;;;;;;14.40;10.77;;;10.90;94.70;;;;;;5046989;28;20396;-57
2023/03/24 02:55:08;;;;;;;12.32;8.88;;;10.90;94.70;;;;;;5046978;28;20034;-54
2023/03/24 02:58:10;;;;;;;13.38;10.27;;;10.90;94.70;;;;;;5054047;28;20078;-58
2023/03/24 03:00:47;;;;;;;12.40;9.30;;;10.90;94.70;;;;;;5043886;28;20048;-58
2023/03/24 03:03:49;;;;;;;13.00;9.48;;;10.90;94.70;;;;;;5050345;28;20036;-57
2023/03/24 03:06:41;;;;;;;13.63;9.63;;;10.90;94.70;;;;;;5045721;28;20057;-53
2023/03/24 03:09:10;;;;;;;12.65;9.60;;;10.90;94.70;;;;;;5051839;28;20094;-55
2023/03/24 03:11:42;;;;;;;12.68;9.40;;;10.90;94.80;;;;;;5033123;28;20045;-56
2023/03/24 03:14:19;;;;;;;11.38;9.77;;;10.90;94.80;;;;;;5036407;28;20021;-56
2023/03/24 03:17:17;;;;;;;9.25;8.25;;;10.90;94.80;;;;;;5033123;28;20062;-53
2023/03/24 03:19:52;;;;;;;13.38;9.23;;;10.90;94.80;;;;;;5040438;28;20068;-54
2023/03/24 03:22:26;;;;;;;13.93;9.75;;;11.00;94.80;;;;;;5052737;28;20124;-56
2023/03/24 03:24:55;;;;;;;13.52;8.70;;;11.00;94.80;;;;;;5032965;28;20136;-57
2023/03/24 03:27:38;;;;;;;10.70;8.43;;;11.00;94.80;;;;;;5032646;28;20088;-54
2023/03/24 03:30:36;;;;;;;12.00;8.38;;;11.00;94.80;;;;;;5032762;28;20087;-52
2023/03/24 03:33:09;;;;;;;11.07;8.80;;;11.00;94.80;;;;;;5034544;28;20098;-54
2023/03/24 03:36:01;;;;;;;9.73;8.00;;;11.00;94.80;;;;;;5038293;28;20025;-51
2023/03/24 03:39:03;;;;;;;10.82;7.55;;;11.00;94.80;;;;;;5012392;28;20135;-51
2023/03/24 03:41:32;;;;;;;10.45;8.27;;;11.10;94.90;;;;;;5050314;28;20112;-51
2023/03/24 03:44:10;;;;;;;8.50;7.28;;;11.00;94.80;;;;;;5052641;28;20029;-55
2023/03/24 03:46:37;;;;;;;9.80;7.22;;;11.10;94.90;;;;;;5048675;28;20394;-56
2023/03/24 03:49:06;;;;;;;9.70;7.30;;;11.10;94.90;;;;;;5047065;28;20053;-51
2023/03/24 03:51:33;;;;;;;10.80;8.13;;;11.10;94.90;;;;;;5052627;28;20113;-52
2023/03/24 03:54:04;;;;;;;10.15;7.13;;;11.10;94.90;;;;;;5049153;28;20428;-54
2023/03/24 03:56:33;;;;;;;8.07;7.20;;;11.10;94.90;;;;;;5032458;28;20447;-55
2023/03/24 03:59:02;;;;;;;8.85;6.57;;;11.10;95.00;;;;;;5028956;28;20493;-55
2023/03/24 04:01:40;;;;;;;8.73;6.70;;;11.10;95.00;;;;;;5033287;28;20064;-55
2023/03/24 04:04:44;;;;;;;8.48;6.65;;;11.20;95.00;;;;;;5032300;28;20108;-53
2023/03/24 04:07:48;;;;;;;7.93;6.30;;;11.20;95.00;;;;;;5032152;28;20124;-56
2023/03/24 04:10:52;;;;;;;9.00;6.25;;;11.20;95.00;;;;;;5038138;28;20024;-54
2023/03/24 04:13:44;;;;;;;8.80;5.72;;;11.20;95.00;;;;;;5036873;28;20070;-53
2023/03/24 04:16:30;;;;;;;8.10;6.05;;;11.20;95.10;;;;;;5051675;28;20025;-54
2023/03/24 04:19:29;;;;;;;8.70;6.22;;;11.20;95.00;;;;;;5032939;28;20049;-55
2023/03/24 04:22:37;;;;;;;7.60;5.55;;;11.30;95.10;;;;;;5032551;28;20050;-55
2023/03/24 04:25:33;;;;;;;6.95;5.38;;;11.30;95.00;;;;;;5049990;28;20065;-53
2023/03/24 04:28:25;;;;;;;7.55;5.55;;;11.30;95.10;;;;;;5051655;28;20035;-53
2023/03/24 04:31:22;;;;;;;8.68;5.15;;;11.40;95.10;;;;;;5051508;28;20473;-53
2023/03/24 04:34:35;;;;;;;6.97;4.82;;;11.40;95.10;;;;;;5049168;28;20041;-51
2023/03/24 04:37:12;;;;;;;7.05;5.22;;;11.40;95.00;;;;;;5047698;28;20110;-52
2023/03/24 04:39:45;;;;;;;8.35;5.40;;;11.40;95.00;;;;;;5048385;28;20365;-56
2023/03/24 04:42:19;;;;;;;7.90;4.88;;;11.40;95.10;;;;;;5048169;28;20065;-51
2023/03/24 04:44:50;;;;;;;7.38;5.00;;;11.40;95.10;;;;;;5031849;28;20305;-51
2023/03/24 04:47:23;;;;;;;6.18;4.15;;;11.40;95.10;;;;;;5031846;28;20034;-52
2023/03/24 04:49:49;;;;;;;7.53;5.30;;;11.40;95.10;;;;;;5015339;28;20129;-52
2023/03/24 04:52:18;;;;;;;6.22;5.03;;;11.40;95.10;;;;;;5033861;28;20051;-55
2023/03/24 04:54:45;;;;;;;8.32;5.28;;;11.40;95.10;;;;;;5038206;28;20071;-52
2023/03/24 04:57:14;;;;;;;6.78;4.25;;;11.40;95.10;;;;;;5044836;28;20025;-57
2023/03/24 04:59:42;;;;;;;6.93;4.82;;;11.40;95.10;;;;;;5032941;28;20390;-58
2023/03/24 05:02:10;;;;;;;6.38;4.63;;;11.40;95.10;;;;;;5034288;28;20037;-57
2023/03/24 05:04:38;;;;;;;8.27;4.10;;;11.40;95.10;;;;;;5043802;28;20104;-53
2023/03/24 05:07:08;;;;;;;3.65;2.55;;;11.50;95.10;;;;;;5036927;28;20021;-49
2023/03/24 05:09:34;;;;;;;3.15;2.25;;;11.40;95.00;;;;;;5041688;28;20013;-48
2023/03/24 05:12:04;;;;;;;4.72;2.53;;;11.20;94.70;;;;;;5044950;28;20104;-49
2023/03/24 05:14:33;;;;;;;4.38;2.53;;;11.10;94.70;;;;;;5050281;28;20394;-48
2023/03/24 05:17:01;;;;;;;6.03;2.70;;;11.10;94.50;;;;;;5052810;28;20385;-47
2023/03/24 05:19:29;;;;;;;7.32;3.25;;;11.00;94.30;;;;;;5049395;28;20302;-48
2023/03/24 05:22:00;;;;;;;5.15;3.05;;;10.90;94.10;;;;;;5035342;28;20060;-47
2023/03/24 05:24:25;;;;;;;7.80;2.47;;;10.80;93.70;;;;;;5069638;28;20029;-48
2023/03/24 05:26:52;;;;;;;4.38;2.40;;;10.60;93.00;;;;;;5036858;28;20048;-47
2023/03/24 05:29:19;;;;;;;5.05;2.42;;;10.60;92.70;;;;;;5041053;28;20411;-47
2023/03/24 05:31:45;;;;;;;4.60;2.30;;;10.50;92.50;;;;;;5055383;28;20119;-46
2023/03/24 05:34:13;;;;;;;7.97;2.75;;;10.50;92.40;;;;;;5041146;28;20133;-46
2023/03/24 05:36:39;;;;;;;6.18;2.30;;;10.40;92.50;;;;;;5036215;28;20017;-46
2023/03/24 05:39:06;;;;;;;5.40;2.35;;;10.50;92.30;;;;;;5035818;28;20104;-45
2023/03/24 05:41:35;;;;;;;6.65;1.98;;;10.40;92.20;;;;;;5053246;28;20415;-47
2023/03/24 05:44:00;;;;;;;3.13;1.95;;;10.40;92.00;;;;;;5053881;28;20033;-45
2023/03/24 05:46:26;;;;;;;9.68;2.17;;;10.40;92.10;;;;;;5055213;28;20040;-47
2023/03/24 05:48:53;;;;;;;5.50;1.88;;;10.30;91.90;;;;;;5051647;28;20026;-50
2023/03/24 05:51:22;;;;;;;7.43;2.13;;;10.30;91.60;;;;;;5043749;28;20182;-45
2023/03/24 05:53:47;;;;;;;6.35;1.60;;;10.20;91.50;;;;;;5048827;28;20439;-46
2023/03/24 05:56:17;;;;;;;6.93;1.95;;;10.10;91.30;;;;;;5047291;28;20040;-45
2023/03/24 05:58:43;;;;;;;7.95;1.50;;;10.10;91.10;;;;;;5055031;28;20033;-44
2023/03/24 06:01:12;;;;;;;9.13;2.35;;;10.00;91.10;;;;;;5047266;28;20041;-47
2023/03/24 06:03:39;;;;;;;7.40;2.20;;;10.00;91.00;;;;;;5054785;28;20056;-44
2023/03/24 06:06:13;;;;;;;7.90;2.25;;;9.90;91.00;;;;;;5045007;28;20037;-45
2023/03/24 06:08:43;;;;;;;5.82;1.58;;;9.90;91.00;;;;;;5052955;28;20028;-51
2023/03/24 06:11:11;;;;;;;7.15;2.40;;;9.90;91.10;;;;;;5051309;28;20036;-45
2023/03/24 06:13:38;;;;;;;6.25;1.98;;;9.80;91.20;;;;;;5044541;28;20039;-45
2023/03/24 06:16:04;;;;;;;7.63;1.80;;;9.80;91.10;;;;;;5041800;28;20112;-48
2023/03/24 06:18:32;;;;;;;10.35;2.30;;;9.80;91.10;;;;;;5054100;28;20170;-45
2023/03/24 06:20:59;;;;;;;9.77;1.73;;;9.80;91.00;;;;;;5052264;28;20347;-48
2023/03/24 06:23:27;;;;;;;8.70;2.03;;;9.70;91.00;;;;;;5051724;28;20344;-46
2023/03/24 06:26:02;;;;;;;5.95;1.90;;;9.70;90.90;;;;;;5034804;28;20044;-46
2023/03/24 06:28:33;;;;;;;7.68;2.13;;;9.70;90.60;;;;;;5035959;28;20072;-45
2023/03/24 06:31:03;;;;;;;7.82;2.20;;;9.70;90.40;;;;;;5052260;28;20090;-47
2023/03/24 06:33:29;;;;;;;8.27;2.60;;;9.70;90.30;;;;;;5054748;28;20590;-46
2023/03/24 06:35:55;;;;;;;12.32;2.55;;;9.70;90.40;;;;;;5050632;28;20037;-44
2023/03/24 06:38:23;;;;;;;13.43;3.90;;;9.80;90.40;;;;;;5038777;28;20029;-45
2023/03/24 06:40:50;;;;;;;9.32;2.15;;;9.80;90.50;;;;;;5052796;28;20029;-47
2023/03/24 06:43:18;;;;;;;8.55;2.28;;;9.90;90.40;;;;;;5047458;28;20355;-50
2023/03/24 06:45:45;;;;;;;9.70;2.22;;;9.90;90.20;;;;;;5053268;28;20345;-43
2023/03/24 06:48:12;;;;;;;13.18;2.80;;;10.00;90.00;;;;;;5053139;28;20017;-47
2023/03/24 06:50:37;;;;;;;7.53;2.78;;;10.00;89.90;;;;;;5053059;28;20498;-45
2023/03/24 06:53:03;;;;;;;9.82;2.63;;;10.10;90.00;;;;;;5052592;28;20075;-44
2023/03/24 06:55:30;;;;;;;9.55;2.72;;;10.10;89.80;;;;;;5053130;28;20028;-46
2023/03/24 06:57:57;;;;;;;13.40;2.53;;;10.20;89.80;;;;;;5051689;28;20365;-46
2023/03/24 07:00:24;;;;;;;12.10;2.17;;;10.20;89.50;;;;;;5050087;28;20106;-44
2023/03/24 07:02:51;;;;;;;9.43;3.83;;;10.20;89.40;;;;;;5052203;28;20033;-44
2023/03/24 07:05:18;;;;;;;15.68;3.38;;;10.10;89.20;;;;;;5051819;28;20028;-44
2023/03/24 07:07:45;;;;;;;9.43;2.42;;;10.20;89.50;;;;;;5053198;28;20036;-44
2023/03/24 07:10:13;;;;;;;9.05;2.40;;;10.10;89.40;;;;;;5051684;28;20024;-45
2023/03/24 07:12:40;;;;;;;12.05;3.03;;;10.10;89.50;;;;;;5044855;28;20048;-45
2023/03/24 07:15:07;;;;;;;11.25;3.08;;;10.10;89.80;;;;;;5052658;28;20041;-44
2023/03/24 07:17:36;;;;;;;12.18;2.13;;;10.10;89.70;;;;;;5036259;28;20025;-45
2023/03/24 07:20:07;;;;;;;10.85;2.30;;;10.20;89.60;;;;;;5046676;28;20033;-44
2023/03/24 07:22:35;;;;;;;12.88;3.22;;;10.20;89.20;;;;;;5032536;28;20041;-45
2023/03/24 07:25:05;;;;;;;11.27;2.92;;;10.30;89.10;;;;;;5032857;28;20018;-48
2023/03/24 07:27:32;;;;;;;13.73;4.25;;;10.30;88.50;;;;;;5032537;28;20435;-44
2023/03/24 07:30:09;;;;;;;8.55;3.17;;;10.30;88.40;;;;;;5044745;28;20037;-44
2023/03/24 07:32:38;;;;;;;15.13;2.80;;;10.40;87.90;;;;;;5052157;28;20104;-44
2023/03/24 07:35:10;;;;;;;15.40;3.65;;;10.50;88.00;;;;;;5052637;28;20109;-45
2023/03/24 07:37:40;;;;;;;12.43;2.95;;;10.60;87.70;;;;;;5030544;28;20068;-44
2023/03/24 07:40:13;;;;;;;10.18;2.42;;;10.50;87.70;;;;;;5035088;28;20056;-43
2023/03/24 07:42:42;;;;;;;12.32;2.78;;;10.50;87.70;;;;;;5049443;28;20048;-44
2023/03/24 07:45:12;;;;;;;10.63;2.72;;;10.50;87.80;;;;;;5051576;28;20024;-44
2023/03/24 07:47:38;;;;;;;8.85;2.42;;;10.40;87.70;;;;;;5050646;28;20021;-44
2023/03/24 07:50:10;;;;;;;15.38;2.63;;;10.40;87.30;;;;;;5048784;28;20029;-45
2023/03/24 07:52:45;;;;;;;12.05;2.58;;;10.40;86.80;;;;;;5051046;28;20098;-44
2023/03/24 07:55:12;;;;;;;10.18;2.85;;;10.50;87.00;;;;;;5051195;28;20370;-46
2023/03/24 07:57:47;;;;;;;8.85;2.80;;;10.50;87.00;;;;;;5046100;28;20402;-44
2023/03/24 08:00:16;;;;;;;11.57;3.13;;;10.60;86.80;;;;;;5050977;28;20017;-46
2023/03/24 08:02:50;;;;;;;7.15;2.08;;;10.60;86.80;;;;;;5049050;28;20044;-45
2023/03/24 08:05:19;;;;;;;8.20;2.95;;;10.60;86.70;;;;;;5043540;28;20030;-46
2023/03/24 08:07:52;;;;;;;12.85;2.42;;;10.80;86.40;;;;;;5032132;28;20061;-45
2023/03/24 08:10:29;;;;;;;7.22;2.38;;;10.90;85.40;;;;;;5031120;28;20037;-44
2023/03/24 08:12:57;;;;;;;9.25;2.25;;;10.90;85.10;;;;;;5044953;28;20040;-48
2023/03/24 08:15:27;;;;;;;7.18;2.47;;;10.90;85.50;;;;;;5051940;28;20035;-45
2023/03/24 08:17:53;;;;;;;;;;;11.00;85.40;;;;;;5050921;28;20068;-49
2023/03/24 08:20:23;;;;;;;11.35;2.40;;;10.90;85.00;;;;;;5009529;28;3292198;-45
2023/03/24 08:22:53;;;;;;;13.00;3.20;;;10.90;85.20;;;;;;5051188;28;20029;-48
2023/03/24 08:25:22;;;;;;;10.68;2.15;;;10.90;85.10;;;;;;5048142;28;20021;-46
2023/03/24 08:27:49;;;;;;;10.57;3.13;;;10.90;85.30;;;;;;5031090;28;20045;-48
2023/03/24 08:30:19;;;;;;;9.77;2.30;;;10.90;85.30;;;;;;5043429;28;20025;-44
2023/03/24 08:32:50;;;;;;;8.85;2.33;;;10.90;85.40;;;;;;5036506;28;20050;-45
2023/03/24 08:35:21;;;;;;;9.48;2.97;;;11.00;85.20;;;;;;5031910;28;20116;-44
2023/03/24 08:37:47;;;;;;;7.75;2.58;;;11.10;84.90;;;;;;5015206;28;20056;-45
2023/03/24 08:40:18;;;;;;;11.65;2.17;;;11.00;85.10;;;;;;5048068;28;20088;-44
2023/03/24 08:42:50;;;;;;;14.55;2.55;;;10.90;84.90;;;;;;5032223;28;20037;-47
2023/03/24 08:45:26;;;;;;;16.85;3.70;;;10.90;85.50;;;;;;5015704;28;20030;-44
2023/03/24 08:48:04;;;;;;;10.90;2.65;;;10.90;86.00;;;;;;5046648;28;20049;-45
2023/03/24 08:50:35;;;;;;;12.88;2.80;;;10.90;86.40;;;;;;5047773;28;20029;-46
2023/03/24 08:53:03;;;;;;;12.63;2.45;;;10.90;87.00;;;;;;5034481;28;20045;-45
2023/03/24 08:55:30;;;;;;;14.90;3.10;;;11.10;87.50;;;;;;5052286;28;20033;-46
2023/03/24 08:57:57;;;;;;;7.68;2.67;;;11.20;87.10;;;;;;5034493;28;20051;-45
2023/03/24 09:00:27;;;;;;;11.38;3.08;;;11.40;86.30;;;;;;5049287;28;20031;-49
2023/03/24 09:02:54;;;;;;;15.15;4.25;;;11.50;85.50;;;;;;5051128;28;20048;-49
2023/03/24 09:05:32;;;;;;;16.98;2.55;;;11.70;85.00;;;;;;5050955;28;20048;-45
2023/03/24 09:07:59;;;;;;;10.60;2.65;;;11.90;83.30;;;;;;5046028;28;20049;-48
2023/03/24 09:10:26;;;;;;;11.80;2.58;;;11.90;82.50;;;;;;5031059;28;20336;-47
2023/03/24 09:12:54;;;;;;;9.25;3.03;;;12.10;82.20;;;;;;5031829;28;20610;-45
2023/03/24 09:15:19;;;;;;;13.05;2.85;;;12.20;81.10;;;;;;5044921;28;20100;-48
2023/03/24 09:17:50;;;;;;;14.10;4.40;;;12.30;80.90;;;;;;5038173;28;20117;-44
2023/03/24 09:20:17;;;;;;;13.57;3.03;;;12.40;81.20;;;;;;5032524;28;20104;-47
2023/03/24 09:22:46;;;;;;;11.50;3.60;;;12.50;79.60;;;;;;5030837;28;20042;-45
2023/03/24 09:25:16;;;;;;;11.60;3.53;;;12.60;78.70;;;;;;5030339;28;20033;-47
2023/03/24 09:27:52;;;;;;;13.20;2.75;;;12.60;78.70;;;;;;5047014;28;20307;-45
2023/03/24 09:30:23;;;;;;;12.55;2.85;;;12.90;78.50;;;;;;5031846;28;20026;-47
2023/03/24 09:32:51;;;;;;;8.68;2.75;;;12.80;77.60;;;;;;5031694;28;20378;-50
2023/03/24 09:35:17;;;;;;;11.25;2.90;;;13.00;77.60;;;;;;5030952;28;20036;-50
2023/03/24 09:37:45;;;;;;;9.77;3.03;;;13.40;77.40;;;;;;5031252;28;20477;-46
2023/03/24 09:40:25;;;;;;;9.75;2.67;;;13.70;75.60;;;;;;5036542;28;20032;-45
2023/03/24 09:43:24;;;;;;;14.02;2.50;;;14.00;74.60;;;;;;5034802;28;20656;-48
2023/03/24 09:45:58;;;;;;;15.73;3.40;;;14.10;73.00;;;;;;5039768;28;20406;-49
2023/03/24 09:48:50;;;;;;;11.05;2.97;;;13.90;73.50;;;;;;5050645;28;20025;-45
2023/03/24 09:51:33;;;;;;;9.30;2.60;;;14.20;72.90;;;;;;5028676;28;20025;-49
2023/03/24 09:54:21;;;;;;;11.15;3.63;;;14.50;71.30;;;;;;5044891;28;20119;-50
2023/03/24 09:56:48;;;;;;;12.23;3.05;;;14.40;69.70;;;;;;5045383;28;20037;-50
2023/03/24 09:59:39;;;;;;;9.50;2.85;;;14.10;71.60;;;;;;5051660;28;20041;-52
2023/03/24 10:02:17;;;;;;;13.55;3.70;;;14.40;69.70;;;;;;5050317;28;20068;-48
2023/03/24 10:04:43;;;;;;;10.70;2.78;;;14.10;69.50;;;;;;5026788;28;20048;-48
2023/03/24 10:07:36;;;;;;;13.10;3.45;;;13.90;70.70;;;;;;5050760;28;20033;-52
2023/03/24 10:10:26;;;;;;;11.55;2.88;;;13.90;71.60;;;;;;5045958;28;20040;-47
2023/03/24 10:12:59;;;;;;;12.13;3.03;;;13.90;72.20;;;;;;5032653;28;20117;-48
2023/03/24 10:15:50;;;;;;;12.30;2.80;;;13.70;72.20;;;;;;5031347;28;20462;-49
2023/03/24 10:18:22;;;;;;;10.77;3.35;;;13.80;70.30;;;;;;5045994;28;20075;-47
2023/03/24 10:20:55;;;;;;;13.77;3.00;;;14.00;68.20;;;;;;5046923;28;20056;-51
2023/03/24 10:23:52;;;;;;;15.00;3.03;;;14.20;70.00;;;;;;5034974;28;20096;-50
2023/03/24 10:26:27;;;;;;;11.18;2.70;;;14.70;70.20;;;;;;5026505;28;20046;-46
2023/03/24 10:29:15;;;;;;;15.35;4.28;;;15.30;70.00;;;;;;5048988;28;20025;-53
2023/03/24 10:31:49;;;;;;;13.30;3.10;;;15.40;66.90;;;;;;5053966;28;20120;-47
2023/03/24 10:34:29;;;;;;;8.70;2.42;;;15.50;62.50;;;;;;5020491;28;20038;-51
2023/03/24 10:36:58;;;;;;;;;;;15.40;63.30;;;;;;5034726;28;20029;-46
2023/03/24 10:39:25;;;;;;;8.38;3.10;;;15.60;64.00;;;;;;5033565;28;19971;-49
2023/03/24 10:41:59;;;;;;;12.32;2.80;;;15.80;61.80;;;;;;5049623;28;20045;-49
2023/03/24 10:44:28;;;;;;;13.05;4.70;;;15.20;62.00;;;;;;5034523;28;20335;-46
2023/03/24 10:47:01;;;;;;;10.00;2.53;;;14.40;63.60;;;;;;5034262;28;20029;-49
2023/03/24 10:49:28;;;;;;;15.55;3.60;;;13.70;66.30;;;;;;5017265;28;20041;-47
2023/03/24 10:52:02;;;;;;;13.60;2.85;;;13.20;66.10;;;;;;5044069;28;20438;-47
2023/03/24 10:54:31;;;;;;;11.98;2.65;;;12.70;65.10;;;;;;5052797;28;20040;-46
2023/03/24 10:56:57;;;;;;;15.02;3.05;;;12.40;66.00;;;;;;5054032;28;20033;-49
2023/03/24 11:00:14;;;;;;;11.68;2.70;;;12.50;66.70;;;;;;5045809;28;20099;-47
2023/03/24 11:02:57;;;;;;;12.52;2.88;;;12.30;68.40;;;;;;5033794;28;20037;-46
2023/03/24 11:05:36;;;;;;;9.52;2.92;;;12.60;69.70;;;;;;5050460;28;20037;-48
2023/03/24 11:08:25;;;;;;;7.88;3.03;;;12.90;70.30;;;;;;5053567;28;20029;-50
2023/03/24 11:10:55;;;;;;;18.60;3.47;;;13.30;69.30;;;;;;5053300;28;20029;-47
2023/03/24 11:13:33;;;;;;;11.30;2.83;;;13.60;67.10;;;;;;5051311;28;20021;-47
2023/03/24 11:16:18;;;;;;;17.02;3.13;;;13.90;66.60;;;;;;5048772;28;20029;-49
2023/03/24 11:19:10;;;;;;;10.88;3.13;;;13.70;66.00;;;;;;5051786;28;20052;-51
2023/03/24 11:21:41;;;;;;;11.38;3.85;;;13.90;67.20;;;;;;5048613;28;20049;-47
2023/03/24 11:24:16;;;;;;;11.00;2.30;;;14.20;65.20;;;;;;5035726;28;20131;-47
2023/03/24 11:27:00;;;;;;;7.75;2.83;;;14.60;65.90;;;;;;5052073;28;20347;-47
2023/03/24 11:29:31;;;;;;;9.80;2.85;;;14.90;62.60;;;;;;5035554;28;20022;-47
2023/03/24 11:32:02;;;;;;;11.88;2.70;;;15.20;62.20;;;;;;5033336;28;20021;-47
2023/03/24 11:34:37;;;;;;;9.02;3.00;;;14.90;62.60;;;;;;5032334;28;20040;-51
2023/03/24 11:37:25;;;;;;;11.15;2.53;;;14.70;64.30;;;;;;5033785;28;20140;-47
2023/03/24 11:40:13;;;;;;;12.32;3.22;;;14.90;61.70;;;;;;5033089;28;20049;-50
2023/03/24 11:42:58;;;;;;;10.98;3.05;;;15.00;60.50;;;;;;5031908;28;20025;-50
2023/03/24 11:45:44;;;;;;;9.40;2.72;;;14.70;60.30;;;;;;5032309;28;20502;-50
2023/03/24 11:48:23;;;;;;;12.98;2.42;;;14.90;60.80;;;;;;5051192;28;20133;-47
2023/03/24 11:50:52;;;;;;;13.20;2.53;;;15.00;59.30;;;;;;5044649;28;20504;-48
2023/03/24 11:53:28;;;;;;;10.48;2.75;;;14.90;59.40;;;;;;5032258;28;20447;-48
2023/03/24 11:56:06;;;;;;;12.82;3.05;;;14.90;58.00;;;;;;5032285;28;20120;-49
2023/03/24 11:58:55;;;;;;;7.55;2.17;;;14.80;58.80;;;;;;5028881;28;20029;-47
2023/03/24 12:01:39;;;;;;;15.55;2.42;;;14.90;59.80;;;;;;5032920;28;20029;-47
2023/03/24 12:04:30;;;;;;;11.38;4.40;;;14.90;59.00;;;;;;5031764;28;20040;-49
2023/03/24 12:07:21;;;;;;;9.15;3.05;;;14.80;60.40;;;;;;5032588;28;20051;-49
2023/03/24 12:10:11;;;;;;;11.95;3.17;;;14.90;59.30;;;;;;5032982;28;20018;-47
2023/03/24 12:13:03;;;;;;;8.73;2.45;;;15.10;59.90;;;;;;5031659;28;20044;-48
2023/03/24 12:15:47;;;;;;;9.23;2.60;;;14.80;58.00;;;;;;5033005;28;20047;-47
2023/03/24 12:18:36;;;;;;;8.65;2.47;;;14.80;58.50;;;;;;5032899;28;20083;-50
2023/03/24 12:21:41;;;;;;;12.25;2.72;;;14.80;60.30;;;;;;5041678;28;20474;-47
2023/03/24 12:24:34;;;;;;;12.73;3.03;;;14.80;59.70;;;;;;5052267;28;20103;-47
2023/03/24 12:27:01;;;;;;;9.93;3.42;;;14.90;59.20;;;;;;5035042;28;20036;-49
2023/03/24 12:29:38;;;;;;;14.90;2.88;;;14.80;60.10;;;;;;5032617;28;20041;-51
2023/03/24 12:32:28;;;;;;;7.63;3.05;;;14.90;60.50;;;;;;5032530;28;20048;-54
2023/03/24 12:35:14;;;;;;;;;;;15.00;57.70;;;;;;5049419;28;20513;-49
2023/03/24 12:37:51;;;;;;;9.40;2.30;;;14.80;58.80;;;;;;5052478;28;19932;-49
2023/03/24 12:40:34;;;;;;;13.50;3.75;;;14.60;59.20;;;;;;5038580;28;20095;-49
2023/03/24 12:43:26;;;;;;;10.18;2.45;;;14.60;60.50;;;;;;5032448;28;20105;-48
2023/03/24 12:45:54;;;;;;;10.95;2.85;;;14.70;60.20;;;;;;5031197;28;20037;-50
2023/03/24 12:48:53;;;;;;;10.20;2.90;;;14.70;60.20;;;;;;5041571;28;20420;-50
2023/03/24 12:52:13;;;;;;;7.95;1.90;;;14.40;58.00;;;;;;5051784;28;20032;-52
2023/03/24 12:55:03;;;;;;;9.55;2.65;;;14.20;59.00;;;;;;5031876;28;20036;-49
2023/03/24 12:57:36;;;;;;;9.57;2.47;;;14.20;59.50;;;;;;5049146;28;20057;-48
2023/03/24 13:00:20;;;;;;;11.07;2.40;;;14.20;59.30;;;;;;5045941;28;20048;-50
2023/03/24 13:03:05;;;;;;;10.48;2.60;;;14.20;60.20;;;;;;5050383;28;20033;-47
2023/03/24 13:05:38;;;;;;;11.23;3.15;;;14.20;61.80;;;;;;5035732;28;20022;-47
2023/03/24 13:08:15;;;;;;;10.23;2.40;;;14.30;61.70;;;;;;5031058;28;20021;-48
2023/03/24 13:10:42;;;;;;;8.80;2.72;;;14.30;61.70;;;;;;5035328;28;20032;-51
2023/03/24 13:13:22;;;;;;;7.72;1.77;;;14.20;60.60;;;;;;5050157;28;20029;-48
2023/03/24 13:15:59;;;;;;;12.15;3.10;;;14.20;61.60;;;;;;5030773;28;20128;-48
2023/03/24 13:18:53;;;;;;;11.45;3.70;;;14.10;61.40;;;;;;5031075;28;20522;-47
2023/03/24 13:21:27;;;;;;;11.40;3.00;;;14.10;62.20;;;;;;5042462;28;20131;-49
2023/03/24 13:24:12;;;;;;;12.95;3.28;;;14.10;62.00;;;;;;5041883;28;20040;-48